Time;durP1;ratioP1;P1;durP2;ratioP2;P2;SDS_P1;SDS_P2;PMS_P1;PMS_P2;Temp;Humidity;BMP_temperature;BMP_pressure;BME280_temperature;BME280_humidity;BME280_pressure;Samples;Min_cycle;Max_cycle;Signal;HPM_P1;HPM_P2
2024/03/14 00:00:42;;;;;;;31.20;17.63;;;;;;;10.58;100.00;100769.16;5021398;28;20238;-82
2024/03/14 00:03:09;;;;;;;29.33;17.57;;;;;;;10.56;100.00;100769.28;5021774;28;20209;-82
2024/03/14 00:05:37;;;;;;;34.50;17.80;;;;;;;10.54;100.00;100776.50;5021128;28;20208;-82
2024/03/14 00:08:03;;;;;;;31.43;17.63;;;;;;;10.55;100.00;100782.69;5021674;28;20269;-83
2024/03/14 00:10:30;;;;;;;45.30;21.50;;;;;;;10.53;100.00;100780.09;5022288;28;20290;-83
2024/03/14 00:12:57;;;;;;;46.80;23.63;;;;;;;10.53;100.00;100782.75;5021797;28;20709;-83
2024/03/14 00:15:23;;;;;;;37.23;19.90;;;;;;;10.54;100.00;100781.81;5021797;28;20229;-83
2024/03/14 00:17:50;;;;;;;35.30;20.70;;;;;;;10.55;100.00;100780.00;5022012;28;20759;-83
2024/03/14 00:20:18;;;;;;;29.23;17.00;;;;;;;10.55;100.00;100780.00;5022300;28;20264;-83
2024/03/14 00:22:46;;;;;;;29.17;18.53;;;;;;;10.54;100.00;100781.81;5023375;28;20241;-83
2024/03/14 00:25:13;;;;;;;31.23;16.57;;;;;;;10.56;100.00;100779.06;5022506;28;20205;-82
2024/03/14 00:27:39;;;;;;;28.53;16.50;;;;;;;10.57;100.00;100776.28;5022613;28;20237;-82
2024/03/14 00:30:09;;;;;;;28.90;17.23;;;;;;;10.55;100.00;100772.03;5021748;28;20211;-82
2024/03/14 00:32:35;;;;;;;24.33;15.43;;;;;;;10.56;100.00;100773.75;5022756;28;20736;-82
2024/03/14 00:35:02;;;;;;;32.50;17.50;;;;;;;10.55;100.00;100764.88;5021506;28;20309;-82
2024/03/14 00:37:29;;;;;;;32.07;17.83;;;;;;;10.54;100.00;100757.84;5020912;28;20201;-82
2024/03/14 00:39:56;;;;;;;29.47;16.60;;;;;;;10.54;100.00;100754.31;5021207;28;20246;-83
2024/03/14 00:42:24;;;;;;;28.30;17.03;;;;;;;10.53;100.00;100758.81;5021281;28;20224;-83
2024/03/14 00:44:51;;;;;;;29.37;17.90;;;;;;;10.55;100.00;100756.03;5021807;28;20569;-83
2024/03/14 00:47:18;;;;;;;29.47;17.87;;;;;;;10.53;100.00;100750.81;5021967;28;20682;-82
2024/03/14 00:49:44;;;;;;;26.27;16.63;;;;;;;10.53;100.00;100753.47;5021957;28;20269;-82
2024/03/14 00:52:11;;;;;;;27.53;16.63;;;;;;;10.55;100.00;100740.06;5022051;28;20638;-82
2024/03/14 00:54:38;;;;;;;27.23;16.93;;;;;;;10.55;100.00;100735.59;5022008;28;20313;-82
2024/03/14 00:57:06;;;;;;;24.87;15.47;;;;;;;10.54;100.00;100738.34;5021986;28;20724;-82
2024/03/14 00:59:33;;;;;;;27.60;16.10;;;;;;;10.56;100.00;100744.44;5021451;28;20265;-83
2024/03/14 01:02:00;;;;;;;25.67;15.83;;;;;;;10.53;100.00;100739.31;5021464;28;20210;-83
2024/03/14 01:04:27;;;;;;;29.80;17.27;;;;;;;10.51;100.00;100730.53;5021717;28;20289;-83
2024/03/14 01:06:54;;;;;;;26.67;16.47;;;;;;;10.50;100.00;100736.81;5021650;28;20274;-82
2024/03/14 01:09:24;;;;;;;28.33;17.03;;;;;;;10.47;100.00;100740.53;5021826;28;20719;-82
2024/03/14 01:11:51;;;;;;;26.67;16.20;;;;;;;10.48;100.00;100725.41;5022908;28;20616;-83
2024/03/14 01:14:18;;;;;;;25.53;16.03;;;;;;;10.47;100.00;100737.84;5021844;28;20633;-82
2024/03/14 01:16:45;;;;;;;27.40;17.03;;;;;;;10.46;100.00;100721.97;5021764;28;20248;-83
2024/03/14 01:19:12;;;;;;;24.90;16.00;;;;;;;10.46;100.00;100721.97;5021306;28;20262;-82
2024/03/14 01:21:38;;;;;;;27.93;16.27;;;;;;;10.45;100.00;100718.47;5021431;28;20214;-82
2024/03/14 01:24:05;;;;;;;25.23;14.83;;;;;;;10.44;100.00;100725.59;5020937;28;20213;-82
2024/03/14 01:26:32;;;;;;;27.87;15.83;;;;;;;10.47;100.00;100727.22;5021075;28;20693;-82
2024/03/14 01:28:59;;;;;;;27.60;16.00;;;;;;;10.45;100.00;100726.44;5021266;28;20768;-83
2024/03/14 01:31:26;;;;;;;28.07;16.87;;;;;;;10.42;100.00;100727.50;5020878;28;20216;-82
2024/03/14 01:33:53;;;;;;;27.87;16.43;;;;;;;10.41;100.00;100727.56;5020740;28;20316;-83
2024/03/14 01:36:21;;;;;;;25.83;15.90;;;;;;;10.40;100.00;100728.53;5021350;28;20211;-83
2024/03/14 01:38:48;;;;;;;26.63;15.93;;;;;;;10.38;100.00;100719.81;5022107;28;20320;-83
2024/03/14 01:41:17;;;;;;;26.90;15.70;;;;;;;10.36;100.00;100725.22;5021458;28;20292;-83
2024/03/14 01:43:43;;;;;;;25.17;15.37;;;;;;;10.36;100.00;100722.56;5021962;28;20198;-82
2024/03/14 01:46:10;;;;;;;26.17;16.20;;;;;;;10.35;100.00;100712.84;5021472;28;20689;-83
2024/03/14 01:48:37;;;;;;;25.90;16.17;;;;;;;10.34;100.00;100716.47;5021941;28;20270;-82
2024/03/14 01:51:04;;;;;;;22.37;15.10;;;;;;;10.33;100.00;100714.75;5021680;28;20205;-83
2024/03/14 01:53:30;;;;;;;22.13;14.83;;;;;;;10.33;100.00;100714.75;5020444;28;20241;-82
2024/03/14 01:55:57;;;;;;;26.40;15.07;;;;;;;10.33;100.00;100713.91;5020955;28;20249;-83
2024/03/14 01:58:26;;;;;;;24.80;15.10;;;;;;;10.31;100.00;100707.81;5021240;28;20309;-83
2024/03/14 02:00:53;;;;;;;24.07;15.77;;;;;;;10.31;100.00;100710.47;5021409;28;20285;-83
2024/03/14 02:03:19;;;;;;;24.40;14.97;;;;;;;10.31;100.00;100711.31;5020671;28;20290;-83
2024/03/14 02:05:46;;;;;;;22.87;14.60;;;;;;;10.30;100.00;100706.94;5021425;28;20257;-82
2024/03/14 02:08:13;;;;;;;24.30;15.03;;;;;;;10.31;100.00;100714.00;5021199;28;20319;-83
2024/03/14 02:10:40;;;;;;;25.30;14.93;;;;;;;10.30;100.00;100706.94;5020189;28;20237;-82
2024/03/14 02:13:06;;;;;;;23.83;14.63;;;;;;;10.29;100.00;100710.56;5020469;28;20603;-83
2024/03/14 02:15:34;;;;;;;23.77;14.63;;;;;;;10.29;100.00;100702.56;5020251;28;20227;-83
2024/03/14 02:18:00;;;;;;;23.23;14.47;;;;;;;10.28;100.00;100708.84;5020660;28;20227;-83
2024/03/14 02:20:27;;;;;;;24.60;14.30;;;;;;;10.27;100.00;100706.28;5021404;28;20651;-83
2024/03/14 02:22:54;;;;;;;23.57;14.70;;;;;;;10.27;100.00;100707.13;5020115;28;20290;-82
2024/03/14 02:25:22;;;;;;;25.53;15.40;;;;;;;10.28;100.00;100705.31;5020590;28;20329;-82
2024/03/14 02:27:50;;;;;;;25.80;15.53;;;;;;;10.27;100.00;100695.63;5021649;28;20223;-82
2024/03/14 02:30:17;;;;;;;29.43;16.43;;;;;;;10.27;100.00;100699.16;5021251;28;20313;-83
2024/03/14 02:32:43;;;;;;;26.73;15.43;;;;;;;10.27;100.00;100696.47;5024105;28;20225;-81
2024/03/14 02:35:10;;;;;;;19.53;13.33;;;;;;;10.28;100.00;100692.88;5023138;28;20231;-83
2024/03/14 02:37:37;;;;;;;23.10;14.60;;;;;;;10.28;100.00;100692.88;5023281;28;20304;-82
2024/03/14 02:40:05;;;;;;;22.60;13.67;;;;;;;10.27;100.00;100693.81;5023421;28;20201;-82
2024/03/14 02:42:32;;;;;;;19.87;13.60;;;;;;;10.29;100.00;100691.94;5023643;28;20317;-82
2024/03/14 02:45:00;;;;;;;19.83;12.30;;;;;;;10.27;100.00;100688.50;5023542;28;20629;-83
2024/03/14 02:47:27;;;;;;;20.43;13.07;;;;;;;10.29;100.00;100691.06;5023816;28;20217;-83
2024/03/14 02:49:56;;;;;;;21.37;13.70;;;;;;;10.29;100.00;100686.59;5023274;28;20284;-82
2024/03/14 02:52:23;;;;;;;19.30;12.77;;;;;;;10.28;100.00;100676.91;5022707;28;20686;-83
2024/03/14 02:54:50;;;;;;;20.30;12.63;;;;;;;10.28;100.00;100679.56;5022256;28;20264;-82
2024/03/14 02:57:17;;;;;;;22.33;13.60;;;;;;;10.28;100.00;100674.25;5022168;28;20207;-82
2024/03/14 02:59:44;;;;;;;16.33;11.93;;;;;;;10.28;100.00;100673.38;5023104;28;20240;-82
2024/03/14 03:02:13;;;;;;;19.93;13.10;;;;;;;10.27;100.00;100675.19;5031851;28;20240;-81
2024/03/14 03:04:40;;;;;;;19.47;12.50;;;;;;;10.28;100.00;100673.38;5039897;28;20245;-83
2024/03/14 03:07:07;;;;;;;23.00;13.13;;;;;;;10.28;100.00;100674.25;5038921;28;20234;-82
2024/03/14 03:09:36;;;;;;;23.63;13.53;;;;;;;10.28;100.00;100673.38;5039450;28;20252;-82
2024/03/14 03:12:03;;;;;;;19.67;11.77;;;;;;;10.27;100.00;100667.19;5039690;28;20213;-83
2024/03/14 03:14:29;;;;;;;18.67;11.50;;;;;;;10.27;100.00;100671.66;5039490;28;20227;-82
2024/03/14 03:16:56;;;;;;;17.60;12.10;;;;;;;10.27;100.00;100666.34;5038621;28;20239;-82
2024/03/14 03:19:23;;;;;;;21.43;12.90;;;;;;;10.26;100.00;100665.50;5038835;28;20273;-82
2024/03/14 03:21:49;;;;;;;15.77;11.00;;;;;;;10.26;100.00;100662.81;5038639;28;20254;-82
2024/03/14 03:24:15;;;;;;;18.43;11.67;;;;;;;10.27;100.00;100667.19;5038512;28;20640;-82
2024/03/14 03:26:42;;;;;;;20.77;13.13;;;;;;;10.26;100.00;100657.50;5038856;28;20206;-83
2024/03/14 03:29:08;;;;;;;19.60;13.50;;;;;;;10.26;100.00;100654.84;5040029;28;20317;-83
2024/03/14 03:31:35;;;;;;;19.43;12.23;;;;;;;10.27;100.00;100661.03;5040410;28;20214;-83
2024/03/14 03:34:02;;;;;;;18.77;11.97;;;;;;;10.26;100.00;100654.84;5040737;28;20247;-83
2024/03/14 03:36:29;;;;;;;19.33;12.70;;;;;;;10.25;100.00;100647.81;5040526;28;20218;-82
2024/03/14 03:38:56;;;;;;;16.60;11.63;;;;;;;10.26;100.00;100649.53;5040547;28;20225;-82
2024/03/14 03:41:23;;;;;;;17.00;11.43;;;;;;;10.24;100.00;100648.75;5040245;28;20317;-83
2024/03/14 03:43:50;;;;;;;19.73;11.87;;;;;;;10.25;100.00;100646.94;5040587;28;20210;-82
2024/03/14 03:46:16;;;;;;;18.17;12.17;;;;;;;10.24;100.00;100642.56;5040878;28;20214;-83
2024/03/14 03:48:42;;;;;;;18.67;11.47;;;;;;;10.23;100.00;100638.19;5039907;28;20227;-82
2024/03/14 03:51:09;;;;;;;17.60;11.00;;;;;;;10.22;100.00;100640.00;5038771;28;20248;-82
2024/03/14 03:53:35;;;;;;;20.03;11.57;;;;;;;10.21;100.00;100632.97;5039181;28;20210;-82
2024/03/14 03:56:02;;;;;;;18.50;12.60;;;;;;;10.20;100.00;100639.28;5038248;28;20224;-83
2024/03/14 03:58:28;;;;;;;17.90;11.87;;;;;;;10.19;100.00;100631.38;5038109;28;20238;-83
2024/03/14 04:01:06;;;;;;;18.43;12.00;;;;;;;10.19;100.00;100631.38;5038782;28;20207;-82
2024/03/14 04:03:32;;;;;;;20.03;12.27;;;;;;;10.18;100.00;100641.13;5040744;28;20217;-83
2024/03/14 04:05:59;;;;;;;19.60;11.73;;;;;;;10.19;100.00;100636.72;5039108;28;20672;-83
2024/03/14 04:08:25;;;;;;;22.60;12.27;;;;;;;10.17;100.00;100638.56;5038417;28;20229;-83
2024/03/14 04:10:53;;;;;;;19.73;12.30;;;;;;;10.17;100.00;100639.44;5038840;28;20228;-82
2024/03/14 04:13:19;;;;;;;20.67;12.07;;;;;;;10.16;100.00;100637.72;5039975;28;20669;-83
2024/03/14 04:15:46;;;;;;;17.10;11.27;;;;;;;10.15;100.00;100641.31;5039001;28;20230;-84
2024/03/14 04:18:13;;;;;;;17.87;11.43;;;;;;;10.16;100.00;100632.38;5039379;28;20696;-83
2024/03/14 04:20:40;;;;;;;17.97;11.07;;;;;;;10.16;100.00;100628.88;5038971;28;20208;-82
2024/03/14 04:23:06;;;;;;;19.50;12.23;;;;;;;10.16;100.00;100628.88;5038464;28;20202;-82
2024/03/14 04:25:33;;;;;;;18.40;11.97;;;;;;;10.16;100.00;100636.84;5038291;28;20647;-82
2024/03/14 04:28:02;;;;;;;21.10;12.20;;;;;;;10.15;100.00;100633.34;5037288;28;20261;-83
2024/03/14 04:30:29;;;;;;;16.03;11.10;;;;;;;10.16;100.00;100623.56;5038375;28;20691;-82
2024/03/14 04:32:56;;;;;;;17.00;12.10;;;;;;;10.16;100.00;100628.88;5038063;28;20233;-83
2024/03/14 04:35:22;;;;;;;18.73;12.37;;;;;;;10.16;100.00;100626.22;5037821;28;20229;-82
2024/03/14 04:37:51;;;;;;;19.70;12.93;;;;;;;10.16;100.00;100636.84;5038496;28;20230;-82
2024/03/14 04:40:19;;;;;;;19.10;12.27;;;;;;;10.15;100.00;100633.34;5039089;28;20199;-82
2024/03/14 04:42:46;;;;;;;17.83;11.37;;;;;;;10.15;100.00;100633.34;5038555;28;20212;-82
2024/03/14 04:45:17;;;;;;;21.73;12.07;;;;;;;10.17;100.00;100625.25;5038298;28;20212;-83
2024/03/14 04:47:44;;;;;;;19.70;12.10;;;;;;;10.16;100.00;100629.72;5039316;28;20199;-82
2024/03/14 04:50:13;;;;;;;18.93;12.10;;;;;;;10.15;100.00;100621.84;5038363;28;20220;-82
2024/03/14 04:52:40;;;;;;;19.20;10.90;;;;;;;10.15;100.00;100627.16;5038066;28;20587;-83
2024/03/14 04:55:08;;;;;;;18.83;11.73;;;;;;;10.13;100.00;100626.41;5037415;28;20229;-83
2024/03/14 04:57:35;;;;;;;17.87;12.13;;;;;;;10.11;100.00;100618.50;5037979;28;20210;-82
2024/03/14 05:00:04;;;;;;;19.50;12.17;;;;;;;10.11;100.00;100629.16;5038384;28;20206;-81
2024/03/14 05:02:31;;;;;;;19.53;12.80;;;;;;;10.07;100.00;100628.47;5037790;28;20231;-81
2024/03/14 05:04:58;;;;;;;22.33;12.43;;;;;;;10.04;100.00;100625.16;5037058;28;20203;-82
2024/03/14 05:07:26;;;;;;;19.63;12.00;;;;;;;10.04;100.00;100628.66;5037006;28;20223;-81
2024/03/14 05:09:54;;;;;;;19.83;12.77;;;;;;;10.02;100.00;100630.59;5038362;28;20239;-81
2024/03/14 05:12:21;;;;;;;17.87;11.70;;;;;;;9.97;100.00;100630.00;5038305;28;20258;-81
2024/03/14 05:14:47;;;;;;;19.77;12.70;;;;;;;9.97;100.00;100631.81;5037713;28;20267;-82
2024/03/14 05:17:14;;;;;;;17.87;12.03;;;;;;;9.96;100.00;100635.41;5037837;28;20210;-81
2024/03/14 05:19:47;;;;;;;16.80;12.20;;;;;;;9.94;100.00;100643.50;5038258;28;20217;-84
2024/03/14 05:22:14;;;;;;;18.87;12.50;;;;;;;9.91;100.00;100637.50;5023825;28;20271;-82
2024/03/14 05:24:41;;;;;;;18.17;11.90;;;;;;;9.92;100.00;100642.72;5038835;28;20677;-83
2024/03/14 05:27:08;;;;;;;17.23;11.87;;;;;;;9.89;100.00;100640.25;5038549;28;20247;-82
2024/03/14 05:29:36;;;;;;;17.67;11.73;;;;;;;9.89;100.00;100640.25;5038962;28;20236;-82
2024/03/14 05:32:03;;;;;;;21.80;12.80;;;;;;;9.86;100.00;100631.59;5039029;28;20207;-82
2024/03/14 05:34:29;;;;;;;19.50;12.23;;;;;;;9.83;100.00;100634.47;5038665;28;20272;-82
2024/03/14 05:36:56;;;;;;;19.93;13.10;;;;;;;9.81;100.00;100631.88;5038185;28;20238;-81
2024/03/14 05:39:24;;;;;;;21.43;13.73;;;;;;;9.79;100.00;100635.59;5039451;28;20226;-82
2024/03/14 05:41:51;;;;;;;19.43;12.80;;;;;;;9.78;100.00;100633.88;5039593;28;20211;-83
2024/03/14 05:44:18;;;;;;;20.47;12.50;;;;;;;9.81;100.00;100628.38;5039499;28;20217;-82
2024/03/14 05:46:46;;;;;;;20.17;13.13;;;;;;;9.79;100.00;100627.59;5039994;28;20206;-82
2024/03/14 05:49:13;;;;;;;19.80;13.37;;;;;;;9.77;100.00;100626.84;5039556;28;20226;-82
2024/03/14 05:51:40;;;;;;;19.03;13.17;;;;;;;9.79;100.00;100630.25;5039339;28;20320;-81
2024/03/14 05:54:06;;;;;;;18.67;12.53;;;;;;;9.78;100.00;100632.06;5039607;28;20252;-83
2024/03/14 05:56:33;;;;;;;18.70;12.90;;;;;;;9.81;100.00;100631.03;5039721;28;20253;-81
2024/03/14 05:59:00;;;;;;;22.83;13.67;;;;;;;9.82;100.00;100633.59;5039022;28;20266;-81
2024/03/14 06:01:28;;;;;;;20.37;14.07;;;;;;;9.82;100.00;100628.28;5038839;28;20244;-82
2024/03/14 06:03:55;;;;;;;17.93;12.23;;;;;;;9.83;100.00;100623.81;5038955;28;20209;-82
2024/03/14 06:06:22;;;;;;;22.73;13.77;;;;;;;9.84;100.00;100625.53;5038731;28;20206;-82
2024/03/14 06:08:48;;;;;;;26.83;14.67;;;;;;;9.86;100.00;100632.44;5037290;28;20243;-81
2024/03/14 06:11:15;;;;;;;27.90;16.27;;;;;;;9.91;100.00;100629.50;5036738;28;20758;-82
2024/03/14 06:13:42;;;;;;;25.30;15.17;;;;;;;9.94;100.00;100637.31;5037319;28;20253;-83
2024/03/14 06:16:09;;;;;;;26.13;15.17;;;;;;;9.95;100.00;100636.38;5036684;28;20238;-82
2024/03/14 06:18:36;;;;;;;21.80;13.83;;;;;;;9.95;100.00;100631.91;5036956;28;20222;-82
2024/03/14 06:21:04;;;;;;;23.50;14.20;;;;;;;9.96;100.00;100640.75;5036529;28;20303;-82
2024/03/14 06:23:31;;;;;;;20.93;12.77;;;;;;;10.00;100.00;100643.13;5036580;28;20575;-82
2024/03/14 06:25:59;;;;;;;22.77;14.10;;;;;;;10.03;100.00;100639.44;5037537;28;20234;-82
2024/03/14 06:28:26;;;;;;;20.90;14.57;;;;;;;10.04;100.00;100643.78;5036671;28;20222;-82
2024/03/14 06:30:52;;;;;;;22.63;14.43;;;;;;;10.04;100.00;100639.31;5038000;28;20276;-84
2024/03/14 06:33:19;;;;;;;19.67;13.57;;;;;;;10.08;100.00;100638.16;5037812;28;20238;-82
2024/03/14 06:35:46;;;;;;;19.70;12.97;;;;;;;10.12;100.00;100633.53;5038091;28;20596;-83
2024/03/14 06:38:14;;;;;;;24.43;13.07;;;;;;;10.16;100.00;100629.72;5038590;28;20252;-82
2024/03/14 06:40:41;;;;;;;19.73;13.93;;;;;;;10.22;100.00;100637.34;5039009;28;20659;-82
2024/03/14 06:43:07;;;;;;;21.13;12.37;;;;;;;10.23;100.00;100625.75;5038318;28;20237;-83
2024/03/14 06:45:34;;;;;;;18.30;12.30;;;;;;;10.27;100.00;100629.94;5038280;28;20240;-82
2024/03/14 06:48:01;;;;;;;19.37;13.63;;;;;;;10.34;100.00;100631.28;5037895;28;20748;-83
2024/03/14 06:50:28;;;;;;;21.57;13.00;;;;;;;10.35;100.00;100640.97;5037540;28;20205;-83
2024/03/14 06:52:55;;;;;;;17.97;12.17;;;;;;;10.36;100.00;100634.72;5037534;28;20297;-82
2024/03/14 06:55:22;;;;;;;16.77;12.33;;;;;;;10.39;100.00;100633.66;5036918;28;20225;-82
2024/03/14 06:57:51;;;;;;;18.00;12.10;;;;;;;10.42;100.00;100628.97;5036818;28;20208;-83
2024/03/14 07:00:22;;;;;;;17.10;12.30;;;;;;;10.42;100.00;100636.97;5037797;28;20209;-82
2024/03/14 07:02:49;;;;;;;17.63;11.60;;;;;;;10.47;100.00;100633.16;5038693;28;20214;-83
2024/03/14 07:05:16;;;;;;;17.57;11.83;;;;;;;10.47;100.00;100634.00;5038590;28;20655;-82
2024/03/14 07:07:44;;;;;;;17.30;12.40;;;;;;;10.49;100.00;100634.78;5037722;28;20678;-82
2024/03/14 07:10:13;;;;;;;16.90;11.57;;;;;;;10.53;100.00;100635.44;5038142;28;20246;-83
2024/03/14 07:12:41;;;;;;;15.93;10.93;;;;;;;10.53;100.00;100633.63;5038228;28;20214;-83
2024/03/14 07:15:08;;;;;;;17.43;11.97;;;;;;;10.54;100.00;100640.69;5036224;28;20318;-82
2024/03/14 07:17:35;;;;;;;15.57;11.37;;;;;;;10.55;100.00;100646.84;5039075;28;20199;-82
2024/03/14 07:20:08;;;;;;;16.37;12.00;;;;;;;10.57;100.00;100645.78;5040226;28;20570;-83
2024/03/14 07:22:37;;;;;;;16.33;11.23;;;;;;;10.59;100.00;100648.34;5040935;28;20192;-82
2024/03/14 07:25:05;;;;;;;16.13;11.73;;;;;;;10.59;100.00;100654.53;5039638;28;20650;-82
2024/03/14 07:27:31;;;;;;;18.13;12.43;;;;;;;10.59;100.00;100662.53;5038386;28;20258;-83
2024/03/14 07:29:59;;;;;;;15.73;11.67;;;;;;;10.63;100.00;100657.88;5039137;28;20211;-82
2024/03/14 07:32:26;;;;;;;15.20;11.47;;;;;;;10.67;100.00;100656.72;5039097;28;20243;-82
2024/03/14 07:34:53;;;;;;;17.40;10.93;;;;;;;10.72;100.00;100657.28;5038631;28;20208;-82
2024/03/14 07:37:23;;;;;;;15.57;11.93;;;;;;;10.73;100.00;100654.53;5039721;28;20208;-83
2024/03/14 07:39:50;;;;;;;15.50;11.10;;;;;;;10.73;100.00;100664.34;5040667;28;20419;-82
2024/03/14 07:42:17;;;;;;;15.77;10.90;;;;;;;10.73;100.00;100664.34;5039334;28;20218;-83
2024/03/14 07:44:45;;;;;;;14.20;11.17;;;;;;;10.77;100.00;100663.16;5039039;28;20213;-83
2024/03/14 07:47:19;;;;;;;16.43;11.00;;;;;;;10.82;100.00;100666.41;5039519;28;20274;-82
2024/03/14 07:49:47;;;;;;;16.27;11.23;;;;;;;10.85;100.00;100668.88;5040873;28;20631;-83
2024/03/14 07:52:13;;;;;;;14.23;10.90;;;;;;;10.88;100.00;100670.50;5039541;28;20731;-82
2024/03/14 07:54:44;;;;;;;14.63;11.30;;;;;;;10.91;100.00;100667.63;5039810;28;20270;-83
2024/03/14 07:57:13;;;;;;;14.63;10.83;;;;;;;10.96;100.00;100671.69;5039195;28;20243;-82
2024/03/14 07:59:40;;;;;;;15.17;10.27;;;;;;;11.00;100.00;100662.53;5044074;28;20235;-82
2024/03/14 08:02:07;;;;;;;14.67;11.40;;;;;;;11.08;100.00;100670.91;5042804;28;20226;-82
2024/03/14 08:04:34;;;;;;;14.83;11.00;;;;;;;11.11;100.00;100665.34;5042629;28;20204;-82
2024/03/14 08:07:10;;;;;;;15.20;10.87;;;;;;;11.20;100.00;100661.25;5043138;28;20268;-82
2024/03/14 08:09:38;;;;;;;17.60;10.60;;;;;;;11.28;100.00;100666.09;5046085;28;20590;-82
2024/03/14 08:12:04;;;;;;;13.47;10.33;;;;;;;11.33;100.00;100671.94;5041755;28;20244;-82
2024/03/14 08:14:33;;;;;;;14.67;10.90;;;;;;;11.44;100.00;100666.78;5042327;28;20320;-82
2024/03/14 08:17:00;;;;;;;15.63;11.40;;;;;;;11.47;100.00;100672.75;5043922;28;20229;-82
2024/03/14 08:19:28;;;;;;;15.93;11.10;;;;;;;11.52;100.00;100669.78;5022357;28;20733;-81
2024/03/14 08:21:55;;;;;;;13.43;10.93;;;;;;;11.59;100.00;100668.41;5018874;28;20216;-82
2024/03/14 08:24:26;;;;;;;14.37;10.47;;;;;;;11.65;100.00;100676.00;5013979;28;20208;-81
2024/03/14 08:26:53;;;;;;;13.87;10.53;;;;;;;11.74;100.00;100683.38;5028801;28;20273;-81
2024/03/14 08:29:20;;;;;;;12.90;11.23;;;;;;;11.81;99.66;100674.06;5018999;28;20320;-82
2024/03/14 08:31:48;;;;;;;14.67;11.27;;;;;;;11.91;98.88;100670.75;5024706;28;20208;-82
2024/03/14 08:34:17;;;;;;;14.30;9.80;;;;;;;12.02;97.87;100673.50;5021319;28;20230;-81
2024/03/14 08:36:43;;;;;;;15.30;10.37;;;;;;;12.15;97.79;100674.41;5019425;28;20236;-81
2024/03/14 08:39:11;;;;;;;13.97;9.83;;;;;;;12.22;98.40;100675.66;5033440;28;20253;-82
2024/03/14 08:41:37;;;;;;;13.47;10.20;;;;;;;12.32;96.95;100670.56;5026519;28;20233;-81
2024/03/14 08:44:05;;;;;;;12.23;9.70;;;;;;;12.39;95.00;100677.16;5024345;28;20241;-81
2024/03/14 08:46:32;;;;;;;12.00;9.57;;;;;;;12.44;94.03;100686.56;5026498;28;20293;-81
2024/03/14 08:48:58;;;;;;;12.93;10.10;;;;;;;12.49;93.83;100689.78;5018444;28;20226;-82
2024/03/14 08:51:26;;;;;;;15.30;10.73;;;;;;;12.54;94.03;100693.94;5019961;28;20217;-82
2024/03/14 08:54:08;;;;;;;10.63;8.87;;;;;;;12.65;92.79;100681.50;5019615;28;20210;-81
2024/03/14 08:56:35;;;;;;;11.60;9.33;;;;;;;12.76;91.59;100675.38;5020823;28;20242;-82
2024/03/14 08:59:02;;;;;;;12.13;9.23;;;;;;;12.77;91.37;100677.09;5025856;28;20665;-83
2024/03/14 09:01:29;;;;;;;16.03;10.77;;;;;;;12.84;91.29;100681.03;5025729;28;20293;-83
2024/03/14 09:03:56;;;;;;;11.33;8.70;;;;;;;12.91;90.56;100684.97;5021004;28;20197;-81
2024/03/14 09:06:28;;;;;;;11.97;9.27;;;;;;;12.94;90.17;100676.72;5020263;28;20226;-82
2024/03/14 09:08:58;;;;;;;12.23;9.63;;;;;;;13.03;89.14;100673.41;5014218;28;20241;-82
2024/03/14 09:11:27;;;;;;;12.30;9.73;;;;;;;13.13;89.17;100674.41;5023145;28;20615;-82
2024/03/14 09:13:53;;;;;;;12.57;9.13;;;;;;;13.19;87.82;100667.81;5024378;28;20206;-82
2024/03/14 09:16:21;;;;;;;12.80;9.50;;;;;;;13.20;87.24;100659.69;5027128;28;20346;-81
2024/03/14 09:18:48;;;;;;;11.53;9.40;;;;;;;13.23;87.05;100663.94;5024521;28;20283;-82
2024/03/14 09:21:15;;;;;;;10.73;9.00;;;;;;;13.29;88.03;100665.28;5016907;28;20692;-81
2024/03/14 09:23:42;;;;;;;11.50;9.73;;;;;;;13.34;87.89;100671.16;5064810;28;20213;-81
2024/03/14 09:26:08;;;;;;;12.33;9.40;;;;;;;13.39;86.83;100671.69;5018875;28;20223;-80
2024/03/14 09:28:35;;;;;;;13.00;10.33;;;;;;;13.40;86.71;100674.25;5020858;28;20264;-82
2024/03/14 09:31:02;;;;;;;11.23;9.37;;;;;;;13.45;87.91;100673.88;5039340;28;20209;-81
2024/03/14 09:33:30;;;;;;;10.73;8.70;;;;;;;13.54;87.01;100673.22;5042850;28;20225;-81
2024/03/14 09:35:57;;;;;;;11.33;9.90;;;;;;;13.54;85.20;100668.72;5017251;28;20232;-84
2024/03/14 09:38:23;;;;;;;10.83;9.70;;;;;;;13.58;85.80;100669.34;5024389;28;20280;-81
2024/03/14 09:40:50;;;;;;;12.13;8.93;;;;;;;13.64;85.45;100674.19;5023876;28;20267;-81
2024/03/14 09:43:19;;;;;;;11.53;8.73;;;;;;;13.72;84.40;100673.63;5040874;28;20213;-83
2024/03/14 09:45:48;;;;;;;11.20;9.23;;;;;;;13.72;84.85;100671.81;5022587;28;20233;-81
2024/03/14 09:48:15;;;;;;;10.03;9.00;;;;;;;13.79;83.13;100670.34;5023968;28;20855;-81
2024/03/14 09:50:41;;;;;;;9.90;8.63;;;;;;;13.84;82.20;100667.34;5024150;28;20237;-81
2024/03/14 09:53:10;;;;;;;9.80;8.33;;;;;;;13.86;82.42;100662.72;5024445;28;20225;-82
2024/03/14 09:55:37;;;;;;;10.77;8.97;;;;;;;13.89;81.00;100660.66;5021181;28;20202;-83
2024/03/14 09:58:04;;;;;;;11.67;9.80;;;;;;;13.94;81.76;100654.97;5022118;28;20260;-82
2024/03/14 10:00:31;;;;;;;11.10;8.40;;;;;;;14.02;81.57;100651.69;5033853;28;20199;-83
2024/03/14 10:02:58;;;;;;;10.13;7.80;;;;;;;14.12;80.57;100652.69;5017935;28;20215;-81
2024/03/14 10:05:25;;;;;;;10.50;7.90;;;;;;;14.18;79.93;100646.81;5018489;28;20209;-85
2024/03/14 10:07:51;;;;;;;10.07;7.50;;;;;;;14.25;80.21;100642.72;5020051;28;20261;-82
2024/03/14 10:10:19;;;;;;;8.67;7.70;;;;;;;14.36;79.53;100639.16;5035330;28;20225;-82
2024/03/14 10:12:51;;;;;;;9.57;7.77;;;;;;;14.45;78.78;100638.50;5020524;28;20740;-84
2024/03/14 10:15:20;;;;;;;8.27;7.00;;;;;;;14.51;77.66;100641.50;5022237;28;20204;-83
2024/03/14 10:17:47;;;;;;;10.70;7.07;;;;;;;14.58;76.67;100636.53;5045068;28;20227;-81
2024/03/14 10:20:14;;;;;;;9.17;7.17;;;;;;;14.67;75.56;100638.47;5038613;28;20627;-83
2024/03/14 10:22:41;;;;;;;10.17;6.90;;;;;;;14.77;76.00;100633.22;5018205;28;20291;-81
2024/03/14 10:25:11;;;;;;;7.13;6.43;;;;;;;14.86;75.07;100622.59;5014709;28;20250;-83
2024/03/14 10:27:38;;;;;;;7.83;7.00;;;;;;;14.95;73.86;100631.72;5023862;28;20219;-83
2024/03/14 10:30:09;;;;;;;6.47;5.77;;;;;;;15.02;73.50;100624.88;5019249;28;20288;-83
2024/03/14 10:32:38;;;;;;;7.37;6.47;;;;;;;15.11;72.09;100625.94;5021814;28;20211;-82
2024/03/14 10:35:09;;;;;;;6.87;5.60;;;;;;;15.11;70.98;100631.31;5043835;28;20206;-83
2024/03/14 10:37:36;;;;;;;6.53;5.57;;;;;;;15.13;71.96;100622.16;5021621;28;20646;-81
2024/03/14 10:40:03;;;;;;;5.87;5.07;;;;;;;15.24;70.11;100615.88;5023280;28;20243;-81
2024/03/14 10:42:30;;;;;;;5.97;5.33;;;;;;;15.28;69.95;100617.34;5013773;28;20241;-81
2024/03/14 10:44:59;;;;;;;5.90;5.30;;;;;;;15.36;70.51;100617.56;5015974;28;20230;-84
2024/03/14 10:47:25;;;;;;;7.03;5.80;;;;;;;15.44;69.41;100606.16;5022656;28;20206;-81
2024/03/14 10:49:53;;;;;;;8.37;6.83;;;;;;;15.50;69.48;100617.25;5020803;28;20256;-83
2024/03/14 10:52:21;;;;;;;7.20;6.03;;;;;;;15.50;69.14;100608.34;5018776;28;20211;-82
2024/03/14 10:54:48;;;;;;;7.50;6.50;;;;;;;15.58;69.32;100605.91;5012573;28;20224;-82
2024/03/14 10:57:15;;;;;;;8.70;7.80;;;;;;;15.62;69.43;100601.97;5015016;28;20236;-81
2024/03/14 10:59:41;;;;;;;7.87;7.07;;;;;;;15.61;68.87;100602.94;5043651;28;20275;-84
2024/03/14 11:02:08;;;;;;;7.47;6.73;;;;;;;15.63;68.66;100595.63;5042568;28;20268;-83
2024/03/14 11:04:35;;;;;;;6.60;5.50;;;;;;;15.64;68.00;100597.31;5036150;28;20243;-83
2024/03/14 11:07:06;;;;;;;5.73;4.73;;;;;;;15.68;67.64;100604.13;5038091;28;20228;-82